sensor_id;sensor_type;location;lat;lon;timestamp;P1;durP1;ratioP1;P2;durP2;ratioP2
75499;SDS011;64076;51.466;7.260;2022-12-07T00:01:19;5.65;;;4.20;;
75499;SDS011;64076;51.466;7.260;2022-12-07T00:03:47;6.97;;;4.53;;
75499;SDS011;64076;51.466;7.260;2022-12-07T00:06:14;5.67;;;4.67;;
75499;SDS011;64076;51.466;7.260;2022-12-07T00:08:41;5.38;;;4.40;;
75499;SDS011;64076;51.466;7.260;2022-12-07T00:11:08;5.38;;;4.10;;
75499;SDS011;64076;51.466;7.260;2022-12-07T00:13:42;7.22;;;4.85;;
75499;SDS011;64076;51.466;7.260;2022-12-07T00:16:09;5.40;;;4.15;;
75499;SDS011;64076;51.466;7.260;2022-12-07T00:18:38;5.33;;;4.17;;
75499;SDS011;64076;51.466;7.260;2022-12-07T00:21:14;5.70;;;4.13;;
75499;SDS011;64076;51.466;7.260;2022-12-07T00:23:42;5.63;;;4.45;;
75499;SDS011;64076;51.466;7.260;2022-12-07T00:28:39;5.43;;;4.30;;
75499;SDS011;64076;51.466;7.260;2022-12-07T00:31:06;6.03;;;4.50;;
75499;SDS011;64076;51.466;7.260;2022-12-07T00:33:33;6.70;;;4.78;;
75499;SDS011;64076;51.466;7.260;2022-12-07T00:36:00;6.63;;;4.38;;
75499;SDS011;64076;51.466;7.260;2022-12-07T00:38:28;6.83;;;4.33;;
75499;SDS011;64076;51.466;7.260;2022-12-07T00:40:55;6.45;;;4.18;;
75499;SDS011;64076;51.466;7.260;2022-12-07T00:43:26;5.50;;;4.30;;
75499;SDS011;64076;51.466;7.260;2022-12-07T00:45:52;6.75;;;4.60;;
75499;SDS011;64076;51.466;7.260;2022-12-07T00:48:18;5.70;;;4.33;;
75499;SDS011;64076;51.466;7.260;2022-12-07T00:50:43;6.30;;;3.92;;
75499;SDS011;64076;51.466;7.260;2022-12-07T00:53:09;5.20;;;4.10;;
75499;SDS011;64076;51.466;7.260;2022-12-07T00:55:35;5.00;;;3.90;;
75499;SDS011;64076;51.466;7.260;2022-12-07T00:58:01;6.20;;;4.20;;
75499;SDS011;64076;51.466;7.260;2022-12-07T01:00:27;7.40;;;4.10;;
75499;SDS011;64076;51.466;7.260;2022-12-07T01:02:53;7.65;;;4.28;;
75499;SDS011;64076;51.466;7.260;2022-12-07T01:05:18;5.97;;;4.10;;
75499;SDS011;64076;51.466;7.260;2022-12-07T01:07:44;5.43;;;3.92;;
75499;SDS011;64076;51.466;7.260;2022-12-07T01:10:11;5.38;;;4.10;;
75499;SDS011;64076;51.466;7.260;2022-12-07T01:12:37;5.57;;;4.07;;
75499;SDS011;64076;51.466;7.260;2022-12-07T01:15:03;5.28;;;4.03;;
75499;SDS011;64076;51.466;7.260;2022-12-07T01:17:28;5.30;;;4.07;;
75499;SDS011;64076;51.466;7.260;2022-12-07T01:19:54;4.93;;;3.85;;
75499;SDS011;64076;51.466;7.260;2022-12-07T01:22:20;4.97;;;3.67;;
75499;SDS011;64076;51.466;7.260;2022-12-07T01:24:45;5.47;;;3.90;;
75499;SDS011;64076;51.466;7.260;2022-12-07T01:27:11;5.07;;;3.63;;
75499;SDS011;64076;51.466;7.260;2022-12-07T01:29:37;4.55;;;3.78;;
75499;SDS011;64076;51.466;7.260;2022-12-07T01:32:03;5.60;;;3.60;;
75499;SDS011;64076;51.466;7.260;2022-12-07T01:34:29;7.87;;;4.23;;
75499;SDS011;64076;51.466;7.260;2022-12-07T01:36:54;4.80;;;3.43;;
75499;SDS011;64076;51.466;7.260;2022-12-07T01:39:20;6.30;;;3.85;;
75499;SDS011;64076;51.466;7.260;2022-12-07T01:41:45;5.10;;;3.87;;
75499;SDS011;64076;51.466;7.260;2022-12-07T01:46:53;5.63;;;3.65;;
75499;SDS011;64076;51.466;7.260;2022-12-07T01:52:19;4.65;;;3.67;;
75499;SDS011;64076;51.466;7.260;2022-12-07T01:54:58;4.70;;;3.75;;
75499;SDS011;64076;51.466;7.260;2022-12-07T01:57:27;5.73;;;3.90;;
75499;SDS011;64076;51.466;7.260;2022-12-07T01:59:53;5.60;;;4.07;;
75499;SDS011;64076;51.466;7.260;2022-12-07T02:02:31;5.15;;;3.70;;
75499;SDS011;64076;51.466;7.260;2022-12-07T02:04:59;5.47;;;3.70;;
75499;SDS011;64076;51.466;7.260;2022-12-07T02:07:27;5.72;;;3.85;;
75499;SDS011;64076;51.466;7.260;2022-12-07T02:09:54;4.67;;;3.57;;
75499;SDS011;64076;51.466;7.260;2022-12-07T02:12:20;4.85;;;3.72;;
75499;SDS011;64076;51.466;7.260;2022-12-07T02:14:48;5.30;;;4.00;;
75499;SDS011;64076;51.466;7.260;2022-12-07T02:17:18;4.90;;;3.80;;
75499;SDS011;64076;51.466;7.260;2022-12-07T02:30:47;5.93;;;4.33;;
75499;SDS011;64076;51.466;7.260;2022-12-07T02:33:19;4.85;;;3.70;;
75499;SDS011;64076;51.466;7.260;2022-12-07T02:35:52;5.20;;;4.25;;
75499;SDS011;64076;51.466;7.260;2022-12-07T02:41:03;5.63;;;4.13;;
75499;SDS011;64076;51.466;7.260;2022-12-07T02:43:38;4.88;;;3.75;;
75499;SDS011;64076;51.466;7.260;2022-12-07T02:46:08;4.93;;;4.30;;
75499;SDS011;64076;51.466;7.260;2022-12-07T02:48:38;4.67;;;3.90;;
75499;SDS011;64076;51.466;7.260;2022-12-07T02:51:05;5.05;;;3.60;;
75499;SDS011;64076;51.466;7.260;2022-12-07T02:53:35;4.57;;;4.03;;
75499;SDS011;64076;51.466;7.260;2022-12-07T02:56:27;5.87;;;4.10;;
75499;SDS011;64076;51.466;7.260;2022-12-07T03:04:33;4.43;;;3.63;;
75499;SDS011;64076;51.466;7.260;2022-12-07T03:07:00;5.13;;;3.60;;
75499;SDS011;64076;51.466;7.260;2022-12-07T03:09:59;5.47;;;3.87;;
75499;SDS011;64076;51.466;7.260;2022-12-07T03:12:43;5.68;;;3.90;;
75499;SDS011;64076;51.466;7.260;2022-12-07T03:15:18;4.90;;;3.67;;
75499;SDS011;64076;51.466;7.260;2022-12-07T03:17:54;4.32;;;3.40;;
75499;SDS011;64076;51.466;7.260;2022-12-07T03:20:23;4.82;;;3.80;;
75499;SDS011;64076;51.466;7.260;2022-12-07T03:22:50;4.73;;;3.30;;
75499;SDS011;64076;51.466;7.260;2022-12-07T03:25:17;7.00;;;3.70;;
75499;SDS011;64076;51.466;7.260;2022-12-07T03:27:44;6.55;;;3.97;;
75499;SDS011;64076;51.466;7.260;2022-12-07T03:30:26;6.13;;;3.43;;
75499;SDS011;64076;51.466;7.260;2022-12-07T03:32:58;5.03;;;3.55;;
75499;SDS011;64076;51.466;7.260;2022-12-07T03:38:08;4.88;;;3.10;;
75499;SDS011;64076;51.466;7.260;2022-12-07T03:43:33;4.17;;;3.10;;
75499;SDS011;64076;51.466;7.260;2022-12-07T03:46:05;4.20;;;3.30;;
75499;SDS011;64076;51.466;7.260;2022-12-07T03:51:30;4.80;;;3.72;;
75499;SDS011;64076;51.466;7.260;2022-12-07T03:54:25;5.28;;;3.55;;
75499;SDS011;64076;51.466;7.260;2022-12-07T03:56:59;4.20;;;3.17;;
75499;SDS011;64076;51.466;7.260;2022-12-07T03:59:26;4.95;;;3.42;;
75499;SDS011;64076;51.466;7.260;2022-12-07T04:01:54;5.28;;;3.50;;
75499;SDS011;64076;51.466;7.260;2022-12-07T04:04:22;4.43;;;3.42;;
75499;SDS011;64076;51.466;7.260;2022-12-07T04:06:49;3.97;;;3.30;;
75499;SDS011;64076;51.466;7.260;2022-12-07T04:09:15;5.10;;;3.57;;
75499;SDS011;64076;51.466;7.260;2022-12-07T04:11:41;3.65;;;3.15;;
75499;SDS011;64076;51.466;7.260;2022-12-07T04:14:07;4.80;;;3.83;;
75499;SDS011;64076;51.466;7.260;2022-12-07T04:16:46;5.50;;;3.67;;
75499;SDS011;64076;51.466;7.260;2022-12-07T04:19:31;4.97;;;3.40;;
75499;SDS011;64076;51.466;7.260;2022-12-07T04:21:58;5.47;;;3.30;;
75499;SDS011;64076;51.466;7.260;2022-12-07T04:24:26;5.82;;;3.40;;
75499;SDS011;64076;51.466;7.260;2022-12-07T04:26:51;4.73;;;3.20;;
75499;SDS011;64076;51.466;7.260;2022-12-07T04:29:17;5.22;;;3.47;;
75499;SDS011;64076;51.466;7.260;2022-12-07T04:31:43;5.60;;;3.45;;
75499;SDS011;64076;51.466;7.260;2022-12-07T04:34:09;4.93;;;3.37;;
75499;SDS011;64076;51.466;7.260;2022-12-07T04:36:36;4.57;;;3.60;;
75499;SDS011;64076;51.466;7.260;2022-12-07T04:39:03;4.30;;;3.50;;
75499;SDS011;64076;51.466;7.260;2022-12-07T04:41:29;4.75;;;3.60;;
75499;SDS011;64076;51.466;7.260;2022-12-07T04:44:01;4.30;;;3.23;;
75499;SDS011;64076;51.466;7.260;2022-12-07T04:46:32;4.95;;;3.55;;
75499;SDS011;64076;51.466;7.260;2022-12-07T04:48:58;4.68;;;3.38;;
75499;SDS011;64076;51.466;7.260;2022-12-07T04:51:25;4.75;;;3.65;;
75499;SDS011;64076;51.466;7.260;2022-12-07T04:53:52;4.33;;;2.87;;
75499;SDS011;64076;51.466;7.260;2022-12-07T04:56:19;3.95;;;3.53;;
75499;SDS011;64076;51.466;7.260;2022-12-07T04:58:46;4.82;;;3.00;;
75499;SDS011;64076;51.466;7.260;2022-12-07T05:01:12;5.75;;;3.30;;
75499;SDS011;64076;51.466;7.260;2022-12-07T05:03:39;7.97;;;3.50;;
75499;SDS011;64076;51.466;7.260;2022-12-07T05:06:05;6.07;;;3.07;;
75499;SDS011;64076;51.466;7.260;2022-12-07T05:08:31;4.82;;;3.40;;
75499;SDS011;64076;51.466;7.260;2022-12-07T05:10:57;4.22;;;3.67;;
75499;SDS011;64076;51.466;7.260;2022-12-07T05:13:23;4.37;;;3.43;;
75499;SDS011;64076;51.466;7.260;2022-12-07T05:15:49;4.60;;;3.38;;
75499;SDS011;64076;51.466;7.260;2022-12-07T05:18:15;5.17;;;3.40;;
75499;SDS011;64076;51.466;7.260;2022-12-07T05:20:40;4.70;;;3.45;;
75499;SDS011;64076;51.466;7.260;2022-12-07T05:23:07;5.10;;;3.30;;
75499;SDS011;64076;51.466;7.260;2022-12-07T05:25:32;5.13;;;3.23;;
75499;SDS011;64076;51.466;7.260;2022-12-07T05:27:58;5.75;;;3.35;;
75499;SDS011;64076;51.466;7.260;2022-12-07T05:30:24;4.93;;;3.13;;
75499;SDS011;64076;51.466;7.260;2022-12-07T05:32:51;4.20;;;3.38;;
75499;SDS011;64076;51.466;7.260;2022-12-07T05:35:17;5.10;;;3.40;;
75499;SDS011;64076;51.466;7.260;2022-12-07T05:37:43;5.60;;;3.55;;
75499;SDS011;64076;51.466;7.260;2022-12-07T05:40:10;5.73;;;3.00;;
75499;SDS011;64076;51.466;7.260;2022-12-07T05:42:37;3.72;;;2.67;;
75499;SDS011;64076;51.466;7.260;2022-12-07T05:45:02;4.13;;;3.15;;
75499;SDS011;64076;51.466;7.260;2022-12-07T05:47:28;3.93;;;2.87;;
75499;SDS011;64076;51.466;7.260;2022-12-07T05:49:54;4.45;;;3.03;;
75499;SDS011;64076;51.466;7.260;2022-12-07T05:52:20;5.13;;;2.63;;
75499;SDS011;64076;51.466;7.260;2022-12-07T05:54:45;5.25;;;3.08;;
75499;SDS011;64076;51.466;7.260;2022-12-07T05:57:11;4.10;;;2.83;;
75499;SDS011;64076;51.466;7.260;2022-12-07T05:59:36;5.30;;;3.07;;
75499;SDS011;64076;51.466;7.260;2022-12-07T06:02:03;4.38;;;2.88;;
75499;SDS011;64076;51.466;7.260;2022-12-07T06:04:32;4.47;;;3.10;;
75499;SDS011;64076;51.466;7.260;2022-12-07T06:07:00;4.47;;;2.78;;
75499;SDS011;64076;51.466;7.260;2022-12-07T06:09:27;4.07;;;3.20;;
75499;SDS011;64076;51.466;7.260;2022-12-07T06:11:53;5.05;;;3.33;;
75499;SDS011;64076;51.466;7.260;2022-12-07T06:14:38;6.27;;;4.03;;
75499;SDS011;64076;51.466;7.260;2022-12-07T06:17:04;5.70;;;3.60;;
75499;SDS011;64076;51.466;7.260;2022-12-07T06:19:30;5.85;;;3.17;;
75499;SDS011;64076;51.466;7.260;2022-12-07T06:21:56;6.10;;;3.40;;
75499;SDS011;64076;51.466;7.260;2022-12-07T06:24:22;4.82;;;3.45;;
75499;SDS011;64076;51.466;7.260;2022-12-07T06:26:47;5.77;;;3.30;;
75499;SDS011;64076;51.466;7.260;2022-12-07T06:29:13;3.85;;;2.90;;
75499;SDS011;64076;51.466;7.260;2022-12-07T06:31:39;4.05;;;2.80;;
75499;SDS011;64076;51.466;7.260;2022-12-07T06:34:07;3.43;;;2.67;;
75499;SDS011;64076;51.466;7.260;2022-12-07T06:36:35;3.60;;;2.30;;
75499;SDS011;64076;51.466;7.260;2022-12-07T06:39:00;4.37;;;2.57;;
75499;SDS011;64076;51.466;7.260;2022-12-07T06:41:26;3.40;;;2.80;;
75499;SDS011;64076;51.466;7.260;2022-12-07T06:43:52;2.97;;;2.00;;
75499;SDS011;64076;51.466;7.260;2022-12-07T06:46:17;3.93;;;3.27;;
75499;SDS011;64076;51.466;7.260;2022-12-07T06:48:43;3.80;;;2.80;;
75499;SDS011;64076;51.466;7.260;2022-12-07T06:51:09;4.70;;;2.70;;
75499;SDS011;64076;51.466;7.260;2022-12-07T06:53:35;3.45;;;2.97;;
75499;SDS011;64076;51.466;7.260;2022-12-07T06:56:01;3.97;;;2.78;;
75499;SDS011;64076;51.466;7.260;2022-12-07T06:58:27;3.80;;;2.30;;
75499;SDS011;64076;51.466;7.260;2022-12-07T07:00:52;3.50;;;2.40;;
75499;SDS011;64076;51.466;7.260;2022-12-07T07:03:18;4.63;;;2.80;;
75499;SDS011;64076;51.466;7.260;2022-12-07T07:05:44;3.28;;;2.50;;
75499;SDS011;64076;51.466;7.260;2022-12-07T07:08:10;2.90;;;2.20;;
75499;SDS011;64076;51.466;7.260;2022-12-07T07:10:35;3.33;;;2.47;;
75499;SDS011;64076;51.466;7.260;2022-12-07T07:13:02;3.10;;;2.30;;
75499;SDS011;64076;51.466;7.260;2022-12-07T07:15:27;2.47;;;2.23;;
75499;SDS011;64076;51.466;7.260;2022-12-07T07:17:53;2.65;;;2.17;;
75499;SDS011;64076;51.466;7.260;2022-12-07T07:20:18;3.27;;;2.17;;
75499;SDS011;64076;51.466;7.260;2022-12-07T07:22:44;5.50;;;2.00;;
75499;SDS011;64076;51.466;7.260;2022-12-07T07:25:10;3.13;;;1.90;;
75499;SDS011;64076;51.466;7.260;2022-12-07T07:27:35;2.58;;;1.70;;
75499;SDS011;64076;51.466;7.260;2022-12-07T07:30:01;5.07;;;1.80;;
75499;SDS011;64076;51.466;7.260;2022-12-07T07:32:27;2.60;;;1.70;;
75499;SDS011;64076;51.466;7.260;2022-12-07T07:34:53;2.80;;;1.57;;
75499;SDS011;64076;51.466;7.260;2022-12-07T07:37:18;2.53;;;1.58;;
75499;SDS011;64076;51.466;7.260;2022-12-07T07:39:44;2.83;;;1.70;;
75499;SDS011;64076;51.466;7.260;2022-12-07T07:42:09;2.83;;;1.90;;
75499;SDS011;64076;51.466;7.260;2022-12-07T07:44:35;2.38;;;1.52;;
75499;SDS011;64076;51.466;7.260;2022-12-07T07:47:00;2.93;;;1.73;;
75499;SDS011;64076;51.466;7.260;2022-12-07T07:49:26;3.13;;;1.43;;
75499;SDS011;64076;51.466;7.260;2022-12-07T07:51:51;2.53;;;1.38;;
75499;SDS011;64076;51.466;7.260;2022-12-07T07:54:17;2.70;;;1.63;;
75499;SDS011;64076;51.466;7.260;2022-12-07T07:56:42;3.83;;;1.60;;
75499;SDS011;64076;51.466;7.260;2022-12-07T07:59:08;3.15;;;1.50;;
75499;SDS011;64076;51.466;7.260;2022-12-07T08:01:33;4.60;;;1.63;;
75499;SDS011;64076;51.466;7.260;2022-12-07T08:03:59;4.82;;;1.85;;
75499;SDS011;64076;51.466;7.260;2022-12-07T08:06:25;4.00;;;2.03;;
75499;SDS011;64076;51.466;7.260;2022-12-07T08:08:51;4.47;;;1.40;;
75499;SDS011;64076;51.466;7.260;2022-12-07T08:11:17;2.70;;;1.73;;
75499;SDS011;64076;51.466;7.260;2022-12-07T08:13:44;4.38;;;2.00;;
75499;SDS011;64076;51.466;7.260;2022-12-07T08:16:11;3.07;;;1.80;;
75499;SDS011;64076;51.466;7.260;2022-12-07T08:18:38;2.30;;;1.75;;
75499;SDS011;64076;51.466;7.260;2022-12-07T08:21:05;2.60;;;1.85;;
75499;SDS011;64076;51.466;7.260;2022-12-07T08:23:32;3.10;;;1.80;;
75499;SDS011;64076;51.466;7.260;2022-12-07T08:26:02;3.00;;;1.63;;
75499;SDS011;64076;51.466;7.260;2022-12-07T08:28:29;3.20;;;1.73;;
75499;SDS011;64076;51.466;7.260;2022-12-07T08:31:02;2.60;;;1.65;;
75499;SDS011;64076;51.466;7.260;2022-12-07T08:33:30;3.47;;;1.52;;
75499;SDS011;64076;51.466;7.260;2022-12-07T08:36:06;2.90;;;1.97;;
75499;SDS011;64076;51.466;7.260;2022-12-07T08:38:37;4.43;;;1.67;;
75499;SDS011;64076;51.466;7.260;2022-12-07T08:41:04;3.47;;;1.73;;
75499;SDS011;64076;51.466;7.260;2022-12-07T08:43:30;3.10;;;1.85;;
75499;SDS011;64076;51.466;7.260;2022-12-07T08:46:13;4.28;;;3.58;;
75499;SDS011;64076;51.466;7.260;2022-12-07T08:48:50;4.33;;;3.10;;
75499;SDS011;64076;51.466;7.260;2022-12-07T08:51:19;3.95;;;2.70;;
75499;SDS011;64076;51.466;7.260;2022-12-07T08:53:46;2.42;;;2.13;;
75499;SDS011;64076;51.466;7.260;2022-12-07T08:56:13;5.53;;;4.38;;
75499;SDS011;64076;51.466;7.260;2022-12-07T08:58:38;4.70;;;4.07;;
75499;SDS011;64076;51.466;7.260;2022-12-07T09:01:04;7.60;;;6.43;;
75499;SDS011;64076;51.466;7.260;2022-12-07T09:03:30;6.33;;;5.70;;
75499;SDS011;64076;51.466;7.260;2022-12-07T09:05:56;4.80;;;4.30;;
75499;SDS011;64076;51.466;7.260;2022-12-07T09:08:23;6.68;;;4.63;;
75499;SDS011;64076;51.466;7.260;2022-12-07T09:10:56;6.53;;;4.00;;
75499;SDS011;64076;51.466;7.260;2022-12-07T09:13:21;35.47;;;6.37;;
75499;SDS011;64076;51.466;7.260;2022-12-07T09:15:47;36.80;;;8.45;;
75499;SDS011;64076;51.466;7.260;2022-12-07T09:18:13;67.87;;;11.80;;
75499;SDS011;64076;51.466;7.260;2022-12-07T09:20:38;78.60;;;14.23;;
75499;SDS011;64076;51.466;7.260;2022-12-07T09:23:05;96.40;;;15.13;;
75499;SDS011;64076;51.466;7.260;2022-12-07T09:25:32;79.75;;;13.52;;
75499;SDS011;64076;51.466;7.260;2022-12-07T09:27:58;84.35;;;13.90;;
75499;SDS011;64076;51.466;7.260;2022-12-07T09:30:24;61.23;;;12.13;;
75499;SDS011;64076;51.466;7.260;2022-12-07T09:32:54;45.53;;;9.00;;
75499;SDS011;64076;51.466;7.260;2022-12-07T09:35:22;42.17;;;8.57;;
75499;SDS011;64076;51.466;7.260;2022-12-07T09:37:48;40.42;;;8.93;;
75499;SDS011;64076;51.466;7.260;2022-12-07T09:40:13;38.73;;;8.17;;
75499;SDS011;64076;51.466;7.260;2022-12-07T09:42:42;32.55;;;7.00;;
75499;SDS011;64076;51.466;7.260;2022-12-07T09:45:14;33.33;;;6.43;;
75499;SDS011;64076;51.466;7.260;2022-12-07T09:47:46;26.83;;;5.68;;
75499;SDS011;64076;51.466;7.260;2022-12-07T09:50:15;22.90;;;6.00;;
75499;SDS011;64076;51.466;7.260;2022-12-07T09:52:44;19.85;;;5.90;;
75499;SDS011;64076;51.466;7.260;2022-12-07T09:55:13;18.57;;;4.97;;
75499;SDS011;64076;51.466;7.260;2022-12-07T09:57:43;18.23;;;5.38;;
75499;SDS011;64076;51.466;7.260;2022-12-07T10:00:16;16.60;;;4.72;;
75499;SDS011;64076;51.466;7.260;2022-12-07T10:02:51;14.98;;;4.50;;
75499;SDS011;64076;51.466;7.260;2022-12-07T10:05:20;13.37;;;3.80;;
75499;SDS011;64076;51.466;7.260;2022-12-07T10:07:52;19.13;;;4.60;;
75499;SDS011;64076;51.466;7.260;2022-12-07T10:10:25;36.33;;;5.07;;
75499;SDS011;64076;51.466;7.260;2022-12-07T10:13:13;26.33;;;5.60;;
75499;SDS011;64076;51.466;7.260;2022-12-07T10:15:52;31.65;;;5.90;;
75499;SDS011;64076;51.466;7.260;2022-12-07T10:18:21;45.30;;;6.03;;
75499;SDS011;64076;51.466;7.260;2022-12-07T10:24:21;37.22;;;6.10;;
75499;SDS011;64076;51.466;7.260;2022-12-07T10:26:30;35.53;;;6.83;;
75499;SDS011;64076;51.466;7.260;2022-12-07T10:31:54;24.70;;;6.53;;
75499;SDS011;64076;51.466;7.260;2022-12-07T10:34:26;21.67;;;5.20;;
75499;SDS011;64076;51.466;7.260;2022-12-07T10:36:55;31.40;;;5.30;;
75499;SDS011;64076;51.466;7.260;2022-12-07T10:42:15;23.70;;;5.32;;
75499;SDS011;64076;51.466;7.260;2022-12-07T10:44:41;24.02;;;4.85;;
75499;SDS011;64076;51.466;7.260;2022-12-07T10:49:49;18.08;;;4.07;;
75499;SDS011;64076;51.466;7.260;2022-12-07T11:06:34;29.33;;;5.30;;
75499;SDS011;64076;51.466;7.260;2022-12-07T11:11:56;32.55;;;6.03;;
75499;SDS011;64076;51.466;7.260;2022-12-07T11:14:36;28.25;;;5.85;;
75499;SDS011;64076;51.466;7.260;2022-12-07T11:17:20;25.05;;;5.30;;
75499;SDS011;64076;51.466;7.260;2022-12-07T11:33:54;18.50;;;4.43;;
75499;SDS011;64076;51.466;7.260;2022-12-07T11:36:49;19.30;;;4.82;;
75499;SDS011;64076;51.466;7.260;2022-12-07T11:42:09;17.10;;;4.00;;
75499;SDS011;64076;51.466;7.260;2022-12-07T11:44:45;18.10;;;3.42;;
75499;SDS011;64076;51.466;7.260;2022-12-07T11:47:35;13.97;;;3.43;;
75499;SDS011;64076;51.466;7.260;2022-12-07T11:50:24;11.55;;;3.17;;
75499;SDS011;64076;51.466;7.260;2022-12-07T11:53:22;15.55;;;3.50;;
75499;SDS011;64076;51.466;7.260;2022-12-07T12:03:45;8.82;;;2.75;;
75499;SDS011;64076;51.466;7.260;2022-12-07T12:06:18;7.15;;;2.00;;
75499;SDS011;64076;51.466;7.260;2022-12-07T12:11:34;8.10;;;2.20;;
75499;SDS011;64076;51.466;7.260;2022-12-07T12:22:27;21.20;;;3.77;;
75499;SDS011;64076;51.466;7.260;2022-12-07T12:25:02;23.90;;;4.63;;
75499;SDS011;64076;51.466;7.260;2022-12-07T12:27:31;23.50;;;4.65;;
75499;SDS011;64076;51.466;7.260;2022-12-07T12:30:23;28.02;;;4.45;;
75499;SDS011;64076;51.466;7.260;2022-12-07T12:33:14;28.33;;;5.30;;
75499;SDS011;64076;51.466;7.260;2022-12-07T12:35:48;27.20;;;5.10;;
75499;SDS011;64076;51.466;7.260;2022-12-07T12:38:48;26.35;;;4.85;;
75499;SDS011;64076;51.466;7.260;2022-12-07T12:51:50;33.03;;;5.47;;
75499;SDS011;64076;51.466;7.260;2022-12-07T12:54:28;32.72;;;5.78;;
75499;SDS011;64076;51.466;7.260;2022-12-07T12:56:59;26.52;;;5.50;;
75499;SDS011;64076;51.466;7.260;2022-12-07T13:04:49;39.25;;;5.90;;
75499;SDS011;64076;51.466;7.260;2022-12-07T13:10:30;34.85;;;5.95;;
75499;SDS011;64076;51.466;7.260;2022-12-07T13:15:36;33.13;;;5.38;;
75499;SDS011;64076;51.466;7.260;2022-12-07T13:20:50;36.13;;;6.40;;
75499;SDS011;64076;51.466;7.260;2022-12-07T13:23:20;55.63;;;8.40;;
75499;SDS011;64076;51.466;7.260;2022-12-07T13:29:05;55.92;;;9.25;;
75499;SDS011;64076;51.466;7.260;2022-12-07T13:31:46;60.15;;;10.20;;
75499;SDS011;64076;51.466;7.260;2022-12-07T13:34:33;66.32;;;11.05;;
75499;SDS011;64076;51.466;7.260;2022-12-07T13:37:00;63.50;;;10.23;;
75499;SDS011;64076;51.466;7.260;2022-12-07T13:39:35;66.30;;;10.47;;
75499;SDS011;64076;51.466;7.260;2022-12-07T13:42:16;69.28;;;11.00;;
75499;SDS011;64076;51.466;7.260;2022-12-07T13:44:54;63.35;;;10.82;;
75499;SDS011;64076;51.466;7.260;2022-12-07T13:50:39;70.88;;;11.75;;
75499;SDS011;64076;51.466;7.260;2022-12-07T13:53:07;71.10;;;11.23;;
75499;SDS011;64076;51.466;7.260;2022-12-07T13:55:38;75.28;;;10.95;;
75499;SDS011;64076;51.466;7.260;2022-12-07T13:58:10;60.03;;;10.52;;
75499;SDS011;64076;51.466;7.260;2022-12-07T14:00:36;60.55;;;10.85;;
75499;SDS011;64076;51.466;7.260;2022-12-07T14:03:03;62.50;;;10.60;;
75499;SDS011;64076;51.466;7.260;2022-12-07T14:05:52;75.22;;;13.57;;
75499;SDS011;64076;51.466;7.260;2022-12-07T14:08:47;61.08;;;11.25;;
75499;SDS011;64076;51.466;7.260;2022-12-07T14:11:14;75.25;;;12.50;;
75499;SDS011;64076;51.466;7.260;2022-12-07T14:18:50;55.28;;;10.25;;
75499;SDS011;64076;51.466;7.260;2022-12-07T14:21:19;59.58;;;9.63;;
75499;SDS011;64076;51.466;7.260;2022-12-07T14:26:37;50.75;;;8.60;;
75499;SDS011;64076;51.466;7.260;2022-12-07T14:31:56;39.30;;;8.18;;
75499;SDS011;64076;51.466;7.260;2022-12-07T14:34:23;45.92;;;7.18;;
75499;SDS011;64076;51.466;7.260;2022-12-07T14:36:49;38.97;;;6.78;;
75499;SDS011;64076;51.466;7.260;2022-12-07T14:39:15;33.37;;;6.87;;
75499;SDS011;64076;51.466;7.260;2022-12-07T14:41:40;26.38;;;5.25;;
75499;SDS011;64076;51.466;7.260;2022-12-07T14:44:21;24.05;;;5.20;;
75499;SDS011;64076;51.466;7.260;2022-12-07T14:46:48;26.48;;;4.72;;
75499;SDS011;64076;51.466;7.260;2022-12-07T14:49:14;26.60;;;5.40;;
75499;SDS011;64076;51.466;7.260;2022-12-07T14:51:41;26.70;;;4.25;;
75499;SDS011;64076;51.466;7.260;2022-12-07T14:54:14;20.13;;;4.75;;
75499;SDS011;64076;51.466;7.260;2022-12-07T14:56:42;21.67;;;3.83;;
75499;SDS011;64076;51.466;7.260;2022-12-07T14:59:09;20.70;;;4.10;;
75499;SDS011;64076;51.466;7.260;2022-12-07T15:01:35;18.90;;;4.10;;
75499;SDS011;64076;51.466;7.260;2022-12-07T15:04:01;13.20;;;4.05;;
75499;SDS011;64076;51.466;7.260;2022-12-07T15:06:26;15.03;;;3.17;;
75499;SDS011;64076;51.466;7.260;2022-12-07T15:08:52;11.50;;;3.33;;
75499;SDS011;64076;51.466;7.260;2022-12-07T15:11:18;14.73;;;3.13;;
75499;SDS011;64076;51.466;7.260;2022-12-07T15:13:43;11.95;;;3.05;;
75499;SDS011;64076;51.466;7.260;2022-12-07T15:16:28;10.90;;;2.77;;
75499;SDS011;64076;51.466;7.260;2022-12-07T15:18:53;9.48;;;2.28;;
75499;SDS011;64076;51.466;7.260;2022-12-07T15:21:19;13.17;;;3.13;;
75499;SDS011;64076;51.466;7.260;2022-12-07T15:23:46;8.40;;;2.08;;
75499;SDS011;64076;51.466;7.260;2022-12-07T15:26:12;11.37;;;2.30;;
75499;SDS011;64076;51.466;7.260;2022-12-07T15:28:39;8.63;;;2.00;;
75499;SDS011;64076;51.466;7.260;2022-12-07T15:31:12;6.47;;;1.90;;
75499;SDS011;64076;51.466;7.260;2022-12-07T15:33:42;6.30;;;2.00;;
75499;SDS011;64076;51.466;7.260;2022-12-07T15:36:08;5.25;;;1.92;;
75499;SDS011;64076;51.466;7.260;2022-12-07T15:38:48;5.43;;;2.10;;
75499;SDS011;64076;51.466;7.260;2022-12-07T15:41:14;4.65;;;1.70;;
75499;SDS011;64076;51.466;7.260;2022-12-07T15:43:40;6.03;;;1.95;;
75499;SDS011;64076;51.466;7.260;2022-12-07T15:46:35;5.38;;;1.92;;
75499;SDS011;64076;51.466;7.260;2022-12-07T15:49:02;3.87;;;1.83;;
75499;SDS011;64076;51.466;7.260;2022-12-07T15:51:29;4.57;;;1.77;;
75499;SDS011;64076;51.466;7.260;2022-12-07T15:53:56;4.72;;;1.67;;
75499;SDS011;64076;51.466;7.260;2022-12-07T15:56:23;3.75;;;1.40;;
75499;SDS011;64076;51.466;7.260;2022-12-07T15:58:48;2.47;;;1.30;;
75499;SDS011;64076;51.466;7.260;2022-12-07T16:01:15;3.37;;;1.60;;
75499;SDS011;64076;51.466;7.260;2022-12-07T16:03:43;3.90;;;2.00;;
75499;SDS011;64076;51.466;7.260;2022-12-07T16:06:09;4.10;;;1.60;;
75499;SDS011;64076;51.466;7.260;2022-12-07T16:08:35;3.13;;;1.35;;
75499;SDS011;64076;51.466;7.260;2022-12-07T16:11:04;2.60;;;1.37;;
75499;SDS011;64076;51.466;7.260;2022-12-07T16:13:30;4.55;;;1.70;;
75499;SDS011;64076;51.466;7.260;2022-12-07T16:15:56;2.40;;;1.50;;
75499;SDS011;64076;51.466;7.260;2022-12-07T16:18:21;2.47;;;1.60;;
75499;SDS011;64076;51.466;7.260;2022-12-07T16:20:47;3.10;;;2.07;;
75499;SDS011;64076;51.466;7.260;2022-12-07T16:23:14;3.38;;;1.55;;
75499;SDS011;64076;51.466;7.260;2022-12-07T16:25:40;2.83;;;1.63;;
75499;SDS011;64076;51.466;7.260;2022-12-07T16:28:05;3.20;;;1.40;;
75499;SDS011;64076;51.466;7.260;2022-12-07T16:30:32;2.90;;;1.50;;
75499;SDS011;64076;51.466;7.260;2022-12-07T16:32:58;2.55;;;1.45;;
75499;SDS011;64076;51.466;7.260;2022-12-07T16:35:24;1.97;;;1.33;;
75499;SDS011;64076;51.466;7.260;2022-12-07T16:37:49;2.17;;;1.20;;
75499;SDS011;64076;51.466;7.260;2022-12-07T16:40:15;1.73;;;0.90;;
75499;SDS011;64076;51.466;7.260;2022-12-07T16:42:40;1.97;;;1.37;;
75499;SDS011;64076;51.466;7.260;2022-12-07T16:45:06;1.80;;;1.03;;
75499;SDS011;64076;51.466;7.260;2022-12-07T16:47:32;2.60;;;1.23;;
75499;SDS011;64076;51.466;7.260;2022-12-07T16:49:57;2.03;;;1.20;;
75499;SDS011;64076;51.466;7.260;2022-12-07T16:52:23;2.50;;;1.30;;
75499;SDS011;64076;51.466;7.260;2022-12-07T16:54:49;2.03;;;1.10;;
75499;SDS011;64076;51.466;7.260;2022-12-07T16:57:15;1.55;;;1.08;;
75499;SDS011;64076;51.466;7.260;2022-12-07T16:59:42;2.03;;;1.83;;
75499;SDS011;64076;51.466;7.260;2022-12-07T17:02:09;2.37;;;1.13;;
75499;SDS011;64076;51.466;7.260;2022-12-07T17:04:36;2.30;;;1.58;;
75499;SDS011;64076;51.466;7.260;2022-12-07T17:07:04;2.45;;;0.93;;
75499;SDS011;64076;51.466;7.260;2022-12-07T17:09:33;1.73;;;1.00;;
75499;SDS011;64076;51.466;7.260;2022-12-07T17:11:59;2.37;;;1.00;;
75499;SDS011;64076;51.466;7.260;2022-12-07T17:14:25;1.60;;;1.10;;
75499;SDS011;64076;51.466;7.260;2022-12-07T17:17:09;2.83;;;1.25;;